Time;durP1;ratioP1;P1;durP2;ratioP2;P2;SDS_P1;SDS_P2;PMS_P1;PMS_P2;Temp;Humidity;BMP_temperature;BMP_pressure;BME280_temperature;BME280_humidity;BME280_pressure;Samples;Min_cycle;Max_cycle;Signal;HPM_P1;HPM_P2
2021/03/11 00:00:59;;;;;;;27.27;13.23;;;;;;;4.10;91.14;95985.03;5039399;28;20205;-73
2021/03/11 00:03:26;;;;;;;26.97;12.80;;;;;;;4.22;90.59;95989.06;5039402;28;20711;-73
2021/03/11 00:05:52;;;;;;;28.10;13.37;;;;;;;4.21;90.30;95990.03;5038889;28;20209;-73
2021/03/11 00:08:18;;;;;;;27.10;13.23;;;;;;;4.22;91.17;95988.28;5037991;28;20197;-72
2021/03/11 00:10:44;;;;;;;27.90;13.17;;;;;;;4.24;91.03;95982.75;5039185;28;20213;-73
2021/03/11 00:13:11;;;;;;;26.10;12.70;;;;;;;4.25;90.29;95980.97;5039153;28;20719;-72
2021/03/11 00:15:39;;;;;;;26.57;13.10;;;;;;;4.27;91.05;95982.44;5038752;28;20205;-73
2021/03/11 00:18:06;;;;;;;27.53;12.73;;;;;;;4.24;90.84;95984.56;5038989;28;20221;-72
2021/03/11 00:20:33;;;;;;;24.73;12.53;;;;;;;4.26;90.66;95983.44;5039044;28;20699;-73
2021/03/11 00:22:59;;;;;;;27.83;12.57;;;;;;;4.26;90.15;95970.41;5038422;28;20232;-73
2021/03/11 00:25:28;;;;;;;27.07;13.00;;;;;;;4.23;90.87;95955.03;5038272;28;20695;-73
2021/03/11 00:27:54;;;;;;;28.40;12.60;;;;;;;4.28;90.63;95968.44;5039240;28;20201;-73
2021/03/11 00:30:22;;;;;;;25.70;12.20;;;;;;;4.31;89.96;95960.34;5039036;28;20259;-73
2021/03/11 00:32:48;;;;;;;27.53;12.37;;;;;;;4.24;91.92;95950.66;5038290;28;20204;-72
2021/03/11 00:35:15;;;;;;;28.30;12.37;;;;;;;4.23;90.85;95949.00;5038562;28;20205;-72
2021/03/11 00:37:43;;;;;;;28.73;12.97;;;;;;;4.31;89.75;95952.50;5039082;28;20281;-73
2021/03/11 00:40:11;;;;;;;26.07;13.23;;;;;;;4.31;89.43;95946.47;5038467;28;20686;-73
2021/03/11 00:42:37;;;;;;;26.03;12.43;;;;;;;4.24;89.92;95935.00;5037777;28;20197;-73
2021/03/11 00:45:05;;;;;;;26.73;12.33;;;;;;;4.27;90.31;95934.72;5038880;28;20212;-73
2021/03/11 00:47:31;;;;;;;27.77;13.30;;;;;;;4.26;88.95;95944.31;5038541;28;20718;-73
2021/03/11 00:49:57;;;;;;;25.97;12.30;;;;;;;4.33;88.74;95934.13;5037942;28;20292;-73
2021/03/11 00:52:24;;;;;;;25.60;11.50;;;;;;;4.42;86.54;95922.81;5038905;28;20197;-72
2021/03/11 00:54:50;;;;;;;24.83;12.10;;;;;;;4.49;86.40;95905.59;5038692;28;20228;-73
2021/03/11 00:57:16;;;;;;;25.97;11.57;;;;;;;4.54;85.84;95900.75;5037441;28;20440;-71
2021/03/11 00:59:42;;;;;;;26.20;12.27;;;;;;;4.58;84.86;95889.03;5038466;28;20657;-72
2021/03/11 01:02:08;;;;;;;24.37;11.53;;;;;;;4.58;84.88;95881.22;5038170;28;20349;-72
2021/03/11 01:04:34;;;;;;;26.40;12.33;;;;;;;4.63;83.82;95907.69;5038496;28;20785;-73
2021/03/11 01:07:00;;;;;;;23.63;11.03;;;;;;;4.58;83.64;95917.75;5037183;28;20209;-73
2021/03/11 01:09:27;;;;;;;25.40;11.77;;;;;;;4.65;83.44;95911.78;5038308;28;20212;-73
2021/03/11 01:11:53;;;;;;;22.77;11.53;;;;;;;4.67;84.00;95904.63;5037766;28;20205;-73
2021/03/11 01:14:19;;;;;;;25.80;12.20;;;;;;;4.65;84.35;95903.97;5037917;28;20258;-73
2021/03/11 01:16:46;;;;;;;27.33;11.93;;;;;;;4.65;84.42;95896.13;5037329;28;20244;-72
2021/03/11 01:19:12;;;;;;;24.00;11.53;;;;;;;4.65;84.87;95906.56;5037345;28;20204;-73
2021/03/11 01:21:38;;;;;;;24.70;11.90;;;;;;;4.64;85.43;95902.31;5038086;28;20634;-73
2021/03/11 01:24:05;;;;;;;24.07;11.53;;;;;;;4.61;85.92;95912.22;5037896;28;20266;-72
2021/03/11 01:26:32;;;;;;;27.00;12.13;;;;;;;4.57;87.04;95903.06;5037063;28;20197;-73
2021/03/11 01:28:59;;;;;;;28.07;12.67;;;;;;;4.52;88.07;95900.06;5037731;28;20209;-72
2021/03/11 01:31:25;;;;;;;28.37;12.57;;;;;;;4.48;88.02;95880.47;5037669;28;20668;-73
2021/03/11 01:33:51;;;;;;;26.97;12.10;;;;;;;4.46;87.96;95877.19;5037506;28;20224;-73
2021/03/11 01:36:17;;;;;;;29.27;11.47;;;;;;;4.45;88.11;95884.19;5037008;28;20209;-73
2021/03/11 01:38:43;;;;;;;25.67;11.90;;;;;;;4.48;86.89;95870.88;5037271;28;20341;-72
2021/03/11 01:41:09;;;;;;;23.27;11.57;;;;;;;4.50;86.45;95873.31;5038032;28;20320;-73
2021/03/11 01:43:36;;;;;;;27.33;11.40;;;;;;;4.55;86.46;95877.13;5036750;28;20746;-72
2021/03/11 01:46:02;;;;;;;21.00;11.00;;;;;;;4.64;85.74;95880.63;5036536;28;20202;-73
2021/03/11 01:48:28;;;;;;;20.77;10.90;;;;;;;4.62;86.25;95874.72;5038017;28;20197;-72
2021/03/11 01:50:54;;;;;;;23.73;11.77;;;;;;;4.57;87.14;95872.59;5036844;28;20219;-72
2021/03/11 01:53:20;;;;;;;21.47;11.20;;;;;;;4.58;86.51;95860.34;5037386;28;20221;-73
2021/03/11 01:55:46;;;;;;;22.00;11.33;;;;;;;4.56;86.35;95857.09;5037407;28;20197;-73
2021/03/11 01:58:12;;;;;;;21.83;10.30;;;;;;;4.63;86.36;95847.66;5037201;28;20255;-73
2021/03/11 02:00:39;;;;;;;21.03;10.73;;;;;;;4.59;87.34;95828.88;5037048;28;20587;-73
2021/03/11 02:03:05;;;;;;;24.60;11.37;;;;;;;4.55;86.35;95819.72;5036374;28;20224;-73
2021/03/11 02:05:31;;;;;;;23.63;12.00;;;;;;;4.59;88.26;95825.47;5037326;28;20201;-73
2021/03/11 02:07:57;;;;;;;19.27;10.23;;;;;;;4.59;87.55;95825.47;5037098;28;20235;-73
2021/03/11 02:10:25;;;;;;;21.40;10.80;;;;;;;4.63;87.18;95821.56;5036692;28;20255;-72
2021/03/11 02:13:06;;;;;;;26.93;11.17;;;;;;;4.56;86.18;95816.16;5037272;28;20201;-72
2021/03/11 02:15:38;;;;;;;24.87;11.73;;;;;;;4.62;85.59;95814.72;5036281;28;20200;-73
2021/03/11 02:18:09;;;;;;;24.23;12.20;;;;;;;4.68;86.19;95829.78;5036971;28;20224;-73
2021/03/11 02:20:46;;;;;;;21.20;10.23;;;;;;;4.69;85.60;95823.59;5036956;28;20202;-73
2021/03/11 02:23:35;;;;;;;22.43;11.37;;;;;;;4.67;87.11;95812.47;5036720;28;20235;-73
2021/03/11 02:26:12;;;;;;;23.37;10.97;;;;;;;4.65;86.33;95798.78;5035973;28;20649;-72
2021/03/11 02:28:53;;;;;;;26.27;11.37;;;;;;;4.67;87.94;95802.03;5037049;28;20197;-73
2021/03/11 02:31:21;;;;;;;23.70;11.07;;;;;;;4.58;87.37;95802.94;5035727;28;20196;-72
2021/03/11 02:33:48;;;;;;;24.13;11.23;;;;;;;4.68;86.25;95806.28;5036609;28;20225;-72
2021/03/11 02:36:15;;;;;;;26.57;10.67;;;;;;;4.63;86.51;95798.09;5036036;28;20209;-73
2021/03/11 02:38:43;;;;;;;20.77;10.67;;;;;;;4.61;88.08;95786.97;5036746;28;20228;-73
2021/03/11 02:41:12;;;;;;;25.53;12.57;;;;;;;4.62;88.77;95786.84;5036674;28;20205;-72
2021/03/11 02:43:39;;;;;;;30.90;13.83;;;;;;;4.63;89.35;95779.84;5036737;28;20748;-73
2021/03/11 02:46:07;;;;;;;26.60;12.10;;;;;;;4.53;89.75;95774.72;5035743;28;20354;-72
2021/03/11 02:48:34;;;;;;;27.07;13.27;;;;;;;4.57;90.21;95764.78;5035724;28;20668;-72
2021/03/11 02:51:01;;;;;;;30.40;13.30;;;;;;;4.64;91.76;95760.59;5036792;28;20212;-72
2021/03/11 02:53:27;;;;;;;26.53;12.00;;;;;;;4.63;91.18;95751.13;5036694;28;20232;-73
2021/03/11 02:55:56;;;;;;;24.67;11.60;;;;;;;4.65;90.99;95741.38;5035786;28;20201;-72
2021/03/11 02:58:22;;;;;;;27.07;12.20;;;;;;;4.59;89.80;95721.91;5036182;28;20228;-73
2021/03/11 03:00:49;;;;;;;23.33;11.73;;;;;;;4.64;90.09;95703.19;5036350;28;20208;-72
2021/03/11 03:03:16;;;;;;;28.33;12.80;;;;;;;4.69;88.20;95698.34;5036364;28;20320;-73
2021/03/11 03:05:43;;;;;;;26.97;11.83;;;;;;;4.66;87.61;95690.81;5035945;28;20205;-73
2021/03/11 03:08:10;;;;;;;21.20;10.73;;;;;;;4.71;86.75;95688.53;5036395;28;20213;-73
2021/03/11 03:10:38;;;;;;;20.07;10.53;;;;;;;4.71;86.90;95683.34;5036414;28;20222;-73
2021/03/11 03:13:12;;;;;;;22.87;11.67;;;;;;;4.70;87.93;95686.91;5037273;28;20236;-72
2021/03/11 03:15:38;;;;;;;24.27;10.67;;;;;;;4.74;85.52;95675.22;5035827;28;20198;-73
2021/03/11 03:18:05;;;;;;;26.47;11.30;;;;;;;4.82;87.91;95670.03;5036070;28;20303;-72
2021/03/11 03:20:32;;;;;;;22.40;10.17;;;;;;;4.81;86.05;95663.16;5036417;28;20214;-72
2021/03/11 03:23:03;;;;;;;21.07;10.67;;;;;;;4.82;87.08;95667.41;5036461;28;20651;-72
2021/03/11 03:25:29;;;;;;;24.17;10.47;;;;;;;4.82;87.25;95662.19;5035806;28;20212;-72
2021/03/11 03:27:55;;;;;;;21.43;9.93;;;;;;;4.85;85.31;95658.28;5036232;28;20201;-72
2021/03/11 03:30:21;;;;;;;21.43;10.53;;;;;;;4.94;84.20;95657.34;5035796;28;20215;-72
2021/03/11 03:32:48;;;;;;;23.93;10.37;;;;;;;4.93;83.65;95650.50;5036192;28;20703;-73
2021/03/11 03:35:15;;;;;;;19.37;9.93;;;;;;;4.99;85.97;95662.94;5035435;28;20202;-72
2021/03/11 03:37:42;;;;;;;23.80;10.80;;;;;;;4.93;87.56;95653.09;5035995;28;20225;-72
2021/03/11 03:40:11;;;;;;;24.43;11.07;;;;;;;4.86;85.72;95652.09;5035971;28;20209;-71
2021/03/11 03:42:47;;;;;;;21.63;10.10;;;;;;;4.99;84.27;95641.19;5037943;28;20197;-73
2021/03/11 03:45:19;;;;;;;22.93;10.93;;;;;;;5.01;85.05;95631.44;5039660;28;20215;-72
2021/03/11 03:47:46;;;;;;;20.60;10.27;;;;;;;5.01;84.77;95634.84;5037241;28;20278;-73
2021/03/11 03:50:13;;;;;;;21.83;10.23;;;;;;;4.94;84.91;95635.66;5039321;28;20201;-73
2021/03/11 03:52:40;;;;;;;23.63;11.03;;;;;;;5.03;85.87;95638.13;5039991;28;20255;-73
2021/03/11 03:55:11;;;;;;;21.97;10.80;;;;;;;4.94;88.84;95635.66;5038965;28;20205;-73
2021/03/11 03:57:41;;;;;;;22.60;11.17;;;;;;;4.98;89.21;95629.97;5039714;28;20225;-72
2021/03/11 04:00:09;;;;;;;22.07;11.30;;;;;;;4.92;90.51;95625.34;5039672;28;20274;-73
2021/03/11 04:02:37;;;;;;;23.07;10.80;;;;;;;4.93;90.77;95623.59;5039060;28;20201;-73
2021/03/11 04:05:05;;;;;;;20.50;10.60;;;;;;;4.82;93.92;95616.88;5038510;28;20221;-73
2021/03/11 04:07:33;;;;;;;21.77;10.47;;;;;;;4.88;93.64;95626.66;5039572;28;21085;-73
2021/03/11 04:10:00;;;;;;;25.23;11.17;;;;;;;4.93;94.30;95620.97;5039291;28;20688;-73
2021/03/11 04:12:27;;;;;;;22.50;11.83;;;;;;;4.81;95.99;95603.94;5038793;28;20733;-73
2021/03/11 04:14:55;;;;;;;21.07;10.97;;;;;;;4.82;95.72;95603.81;5039090;28;20276;-73
2021/03/11 04:17:21;;;;;;;25.00;11.77;;;;;;;4.86;94.09;95602.50;5038515;28;20236;-72
2021/03/11 04:19:48;;;;;;;30.10;13.60;;;;;;;4.89;91.39;95596.97;5039256;28;20302;-73
2021/03/11 04:22:14;;;;;;;27.70;13.13;;;;;;;4.89;89.40;95594.34;5038737;28;20210;-73
2021/03/11 04:24:41;;;;;;;34.23;15.50;;;;;;;4.88;88.45;95595.31;5040055;28;20614;-73
2021/03/11 04:27:09;;;;;;;37.80;17.80;;;;;;;4.90;87.93;95593.38;5038601;28;20197;-72
2021/03/11 04:29:38;;;;;;;38.43;16.47;;;;;;;5.01;87.22;95587.06;5038473;28;20197;-72
2021/03/11 04:32:05;;;;;;;32.63;14.10;;;;;;;5.02;86.16;95594.72;5038655;28;20739;-73
2021/03/11 04:34:33;;;;;;;25.17;12.10;;;;;;;5.02;85.90;95586.09;5039025;28;20221;-72
2021/03/11 04:37:00;;;;;;;25.53;10.93;;;;;;;5.09;85.96;95584.47;5038563;28;20197;-73
2021/03/11 04:39:26;;;;;;;30.03;14.17;;;;;;;5.17;85.48;95582.69;5038515;28;21087;-72
2021/03/11 04:41:54;;;;;;;30.13;12.93;;;;;;;5.18;85.95;95579.09;5038970;28;20209;-73
2021/03/11 04:44:22;;;;;;;23.70;11.27;;;;;;;5.27;84.80;95583.38;5038854;28;20221;-73
2021/03/11 04:46:51;;;;;;;23.37;10.40;;;;;;;5.28;84.38;95581.56;5038296;28;20201;-73
2021/03/11 04:49:18;;;;;;;22.03;11.80;;;;;;;5.31;83.92;95573.41;5038674;28;20205;-73
2021/03/11 04:51:45;;;;;;;28.27;13.27;;;;;;;5.32;85.45;95575.88;5038584;28;20212;-73
2021/03/11 04:54:12;;;;;;;28.43;11.83;;;;;;;5.37;84.76;95573.56;5037587;28;20232;-72
2021/03/11 04:56:40;;;;;;;24.03;10.83;;;;;;;5.38;85.45;95575.19;5038259;28;20209;-72
2021/03/11 04:59:06;;;;;;;25.70;10.87;;;;;;;5.50;83.96;95573.94;5038198;28;20225;-72
2021/03/11 05:01:37;;;;;;;23.60;11.13;;;;;;;5.53;84.85;95573.59;5038240;28;20205;-72
2021/03/11 05:04:06;;;;;;;29.17;11.80;;;;;;;5.55;83.25;95575.06;5038103;28;20224;-73
2021/03/11 05:06:32;;;;;;;41.03;14.30;;;;;;;5.60;83.15;95575.41;5037801;28;20212;-73
2021/03/11 05:08:58;;;;;;;27.80;10.97;;;;;;;5.72;80.96;95568.06;5037700;28;20209;-73
2021/03/11 05:11:24;;;;;;;19.57;9.70;;;;;;;5.80;81.71;95561.03;5038109;28;20209;-72
2021/03/11 05:13:50;;;;;;;20.70;9.70;;;;;;;5.97;79.19;95554.00;5038172;28;20221;-73
2021/03/11 05:16:16;;;;;;;23.27;10.83;;;;;;;6.11;78.25;95560.19;5037370;28;20296;-72
2021/03/11 05:18:43;;;;;;;20.40;8.70;;;;;;;6.17;78.31;95561.31;5038093;28;20224;-73
2021/03/11 05:21:09;;;;;;;20.83;8.93;;;;;;;6.31;75.58;95563.25;5037946;28;20212;-72
2021/03/11 05:23:36;;;;;;;22.47;9.17;;;;;;;6.50;73.86;95568.09;5038163;28;20222;-73
2021/03/11 05:26:02;;;;;;;20.97;9.83;;;;;;;6.59;73.72;95570.53;5037230;28;20208;-72
2021/03/11 05:28:28;;;;;;;19.70;8.57;;;;;;;6.70;71.95;95560.50;5037764;28;20197;-71
2021/03/11 05:30:54;;;;;;;24.50;10.50;;;;;;;6.71;73.38;95558.72;5038576;28;20205;-72
2021/03/11 05:33:20;;;;;;;19.50;8.50;;;;;;;6.96;69.29;95558.44;5037268;28;20232;-73
2021/03/11 05:35:46;;;;;;;18.83;8.10;;;;;;;7.14;68.29;95550.28;5037000;28;20205;-73
2021/03/11 05:38:13;;;;;;;13.43;5.50;;;;;;;7.09;69.18;95553.44;5038519;28;20763;-73
2021/03/11 05:40:39;;;;;;;17.53;7.57;;;;;;;7.27;67.36;95557.41;5037602;28;20208;-73
2021/03/11 05:43:07;;;;;;;17.50;7.23;;;;;;;7.29;67.30;95572.97;5037216;28;20225;-73
2021/03/11 05:45:34;;;;;;;17.67;7.60;;;;;;;7.35;66.77;95565.22;5037162;28;20205;-73
2021/03/11 05:48:01;;;;;;;18.67;7.90;;;;;;;7.40;66.77;95573.38;5037824;28;20254;-73
2021/03/11 05:50:28;;;;;;;21.20;8.37;;;;;;;7.44;65.87;95573.84;5037360;28;20208;-72
2021/03/11 05:52:56;;;;;;;17.87;7.50;;;;;;;7.45;66.46;95568.44;5037630;28;20227;-73
2021/03/11 05:55:24;;;;;;;21.67;8.77;;;;;;;7.45;66.33;95581.53;5036434;28;20263;-73
2021/03/11 05:57:50;;;;;;;18.73;8.97;;;;;;;7.42;66.80;95581.06;5037450;28;20225;-73
2021/03/11 06:00:18;;;;;;;17.23;7.30;;;;;;;7.37;69.31;95583.41;5036615;28;20229;-72
2021/03/11 06:02:46;;;;;;;22.27;8.40;;;;;;;7.19;75.53;95584.66;5037078;28;20258;-73
2021/03/11 06:05:14;;;;;;;18.00;8.40;;;;;;;6.94;79.38;95593.63;5035815;28;20997;-72
2021/03/11 06:07:44;;;;;;;16.40;8.00;;;;;;;6.79;83.53;95605.81;5037150;28;20556;-72
2021/03/11 06:10:11;;;;;;;15.47;7.73;;;;;;;6.61;86.64;95599.16;5037188;28;20295;-72
2021/03/11 06:12:39;;;;;;;20.23;9.73;;;;;;;6.44;90.37;95594.94;5037029;28;20201;-72
2021/03/11 06:15:11;;;;;;;21.07;9.53;;;;;;;6.36;93.06;95597.56;5036419;28;20202;-73
2021/03/11 06:17:39;;;;;;;18.60;8.60;;;;;;;6.27;94.38;95591.53;5036503;28;20221;-73
2021/03/11 06:20:06;;;;;;;20.30;9.77;;;;;;;6.22;97.42;95599.09;5036753;28;20206;-73
2021/03/11 06:22:32;;;;;;;22.60;9.60;;;;;;;6.14;99.97;95575.53;5036983;28;20675;-72
2021/03/11 06:24:59;;;;;;;20.17;8.90;;;;;;;6.17;100.00;95585.69;5036706;28;20227;-72
2021/03/11 06:27:25;;;;;;;20.67;7.17;;;;;;;6.19;100.00;95570.63;5036467;28;20201;-73
2021/03/11 06:29:52;;;;;;;22.03;8.80;;;;;;;6.14;100.00;95582.59;5036597;28;20205;-72
2021/03/11 06:32:18;;;;;;;23.03;9.40;;;;;;;6.18;100.00;95582.06;5036972;28;20205;-73
2021/03/11 06:34:44;;;;;;;23.10;9.80;;;;;;;6.18;100.00;95587.31;5037081;28;20217;-73
2021/03/11 06:37:11;;;;;;;23.90;10.33;;;;;;;6.27;100.00;95583.69;5035633;28;20204;-73
2021/03/11 06:39:38;;;;;;;18.53;8.50;;;;;;;6.30;100.00;95586.00;5036739;28;20205;-73
2021/03/11 06:42:06;;;;;;;23.57;9.10;;;;;;;6.40;100.00;95581.41;5037014;28;20231;-73
2021/03/11 06:44:34;;;;;;;23.90;9.30;;;;;;;6.47;97.90;95582.34;5036756;28;20630;-73
2021/03/11 06:47:03;;;;;;;18.40;7.60;;;;;;;6.65;96.13;95580.31;5036007;28;20209;-73
2021/03/11 06:49:29;;;;;;;14.57;6.83;;;;;;;6.68;96.35;95570.34;5036517;28;20197;-72
2021/03/11 06:52:09;;;;;;;19.27;8.67;;;;;;;6.71;94.97;95562.13;5036685;28;20205;-73
2021/03/11 06:54:56;;;;;;;18.50;8.23;;;;;;;6.90;93.86;95566.16;5036593;28;20734;-73
2021/03/11 06:57:30;;;;;;;21.07;8.90;;;;;;;7.00;91.93;95556.25;5035980;28;20228;-73
2021/03/11 06:59:57;;;;;;;20.07;7.90;;;;;;;7.08;90.83;95546.56;5036112;28;20220;-73
2021/03/11 07:02:25;;;;;;;17.07;7.93;;;;;;;7.22;90.40;95558.94;5036275;28;20247;-73
2021/03/11 07:04:53;;;;;;;17.13;7.53;;;;;;;7.30;88.89;95543.97;5036756;28;20221;-73
2021/03/11 07:07:20;;;;;;;16.47;6.67;;;;;;;7.49;88.14;95540.88;5036118;28;20201;-73
2021/03/11 07:09:47;;;;;;;19.53;7.00;;;;;;;7.58;88.41;95529.34;5036223;28;20236;-73
2021/03/11 07:12:13;;;;;;;14.10;7.07;;;;;;;7.67;88.47;95535.34;5036444;28;20205;-73
2021/03/11 07:14:39;;;;;;;14.30;6.13;;;;;;;7.77;88.68;95533.31;5036127;28;20275;-73
2021/03/11 07:17:19;;;;;;;16.13;7.17;;;;;;;7.82;88.84;95533.59;5036870;28;20209;-73
2021/03/11 07:20:06;;;;;;;11.90;5.53;;;;;;;7.95;87.72;95506.56;5040569;28;20197;-73
2021/03/11 07:22:32;;;;;;;10.23;4.73;;;;;;;8.02;87.67;95509.31;5040484;28;20208;-73
2021/03/11 07:24:58;;;;;;;8.87;4.37;;;;;;;8.01;88.51;95533.91;5037193;28;21181;-73
2021/03/11 07:27:24;;;;;;;13.20;5.80;;;;;;;8.05;87.88;95522.06;5039309;28;20197;-73
2021/03/11 07:30:01;;;;;;;12.43;6.10;;;;;;;8.00;88.82;95524.41;5039918;28;20243;-73
2021/03/11 07:32:27;;;;;;;13.97;6.00;;;;;;;8.03;89.05;95524.03;5039094;28;20224;-73
2021/03/11 07:34:53;;;;;;;12.30;5.10;;;;;;;8.02;89.66;95532.91;5039544;28;20294;-73
2021/03/11 07:37:22;;;;;;;11.00;5.50;;;;;;;8.09;89.26;95521.50;5039163;28;20224;-73
2021/03/11 07:39:49;;;;;;;9.97;4.37;;;;;;;8.25;88.73;95533.66;5039825;28;20253;-73
2021/03/11 07:42:16;;;;;;;13.57;5.60;;;;;;;8.21;89.45;95542.91;5039190;28;20296;-73
2021/03/11 07:44:42;;;;;;;12.43;5.73;;;;;;;8.14;90.33;95552.50;5039976;28;20221;-73
2021/03/11 07:47:08;;;;;;;13.47;5.37;;;;;;;8.16;89.87;95546.09;5037461;28;20209;-72
2021/03/11 07:49:34;;;;;;;10.83;4.70;;;;;;;8.15;90.44;95551.50;5038055;28;20197;-73
2021/03/11 07:52:01;;;;;;;11.53;5.23;;;;;;;8.17;90.61;95547.72;5035159;28;20593;-73
2021/03/11 07:54:32;;;;;;;11.73;5.33;;;;;;;8.14;90.56;95548.06;5039685;28;20229;-73
2021/03/11 07:56:58;;;;;;;11.83;5.57;;;;;;;8.15;89.58;95557.56;5038385;28;20216;-72
2021/03/11 07:59:24;;;;;;;11.13;5.03;;;;;;;8.15;90.12;95541.81;5039573;28;20232;-73
2021/03/11 08:01:53;;;;;;;13.30;6.00;;;;;;;8.10;91.90;95535.47;5039763;28;20209;-73
2021/03/11 08:04:22;;;;;;;12.30;5.70;;;;;;;8.17;90.43;95528.50;5039057;28;20225;-72
2021/03/11 08:06:48;;;;;;;14.23;5.60;;;;;;;8.20;90.31;95525.56;5037625;28;20205;-72
2021/03/11 08:09:35;;;;;;;14.23;5.43;;;;;;;8.20;90.17;95505.38;5037306;28;20213;-73
2021/03/11 08:12:34;;;;;;;10.17;5.07;;;;;;;8.20;90.04;95505.38;5036972;28;20676;-73
2021/03/11 08:15:02;;;;;;;13.20;6.10;;;;;;;8.23;90.44;95518.09;5036253;28;20294;-73
2021/03/11 08:17:45;;;;;;;10.87;4.67;;;;;;;8.26;90.76;95520.41;5036768;28;20201;-72
2021/03/11 08:20:38;;;;;;;12.33;5.17;;;;;;;8.30;90.22;95521.66;5036658;28;20201;-72
2021/03/11 08:23:10;;;;;;;13.43;5.80;;;;;;;8.29;91.05;95511.34;5037583;28;20228;-73
2021/03/11 08:25:41;;;;;;;12.40;5.43;;;;;;;8.28;91.32;95509.72;5037387;28;20427;-73
2021/03/11 08:28:37;;;;;;;11.70;5.00;;;;;;;8.40;89.34;95503.00;5037208;28;20343;-73
2021/03/11 08:31:04;;;;;;;8.83;4.47;;;;;;;8.45;89.16;95511.97;5038115;28;20255;-72
2021/03/11 08:33:45;;;;;;;13.17;5.40;;;;;;;8.49;89.49;95502.75;5037997;28;20761;-72
2021/03/11 08:36:36;;;;;;;9.97;5.17;;;;;;;8.53;89.64;95507.44;5037148;28;20220;-72
2021/03/11 08:39:03;;;;;;;10.07;5.30;;;;;;;8.57;89.51;95486.91;5038412;28;20229;-72
2021/03/11 08:41:33;;;;;;;11.07;4.87;;;;;;;8.56;88.95;95474.75;5037641;28;20205;-73
2021/03/11 08:44:02;;;;;;;10.87;5.17;;;;;;;8.65;88.99;95463.94;5037608;28;20399;-72
2021/03/11 08:46:48;;;;;;;10.30;5.07;;;;;;;8.70;88.82;95460.78;5037148;28;20201;-71
2021/03/11 08:49:36;;;;;;;15.00;5.47;;;;;;;8.75;88.33;95443.47;5038317;28;20233;-72
2021/03/11 08:52:02;;;;;;;9.80;4.70;;;;;;;8.82;87.74;95446.16;5037660;28;20680;-72
2021/03/11 08:54:28;;;;;;;13.30;5.03;;;;;;;8.87;87.13;95435.91;5037322;28;20263;-71
2021/03/11 08:56:55;;;;;;;10.73;4.60;;;;;;;8.91;86.76;95438.00;5037536;28;20585;-73
2021/03/11 08:59:21;;;;;;;8.97;5.07;;;;;;;8.99;87.03;95424.75;5037817;28;20221;-72
2021/03/11 09:01:48;;;;;;;11.40;5.10;;;;;;;9.05;87.38;95428.44;5037068;28;20201;-72
2021/03/11 09:04:42;;;;;;;12.47;4.60;;;;;;;9.20;86.10;95425.56;5037389;28;20224;-72
2021/03/11 09:07:27;;;;;;;7.80;3.40;;;;;;;9.27;85.08;95429.06;5037196;28;20216;-72
2021/03/11 09:09:53;;;;;;;9.83;4.63;;;;;;;9.40;84.48;95438.88;5037078;28;20224;-72
2021/03/11 09:12:21;;;;;;;10.30;3.83;;;;;;;9.56;82.94;95426.28;5037709;28;20201;-73
2021/03/11 09:14:49;;;;;;;12.83;4.63;;;;;;;9.63;83.06;95427.13;5037083;28;20777;-73
2021/03/11 09:17:16;;;;;;;5.80;3.23;;;;;;;9.72;81.41;95418.94;5036302;28;20202;-72
2021/03/11 09:19:44;;;;;;;10.60;4.07;;;;;;;9.79;82.06;95425.03;5037149;28;20212;-72
2021/03/11 09:22:24;;;;;;;7.93;4.03;;;;;;;9.96;81.38;95423.78;5037228;28;20255;-72
2021/03/11 09:25:03;;;;;;;10.53;3.90;;;;;;;10.06;80.41;95426.06;5037008;28;20720;-72
2021/03/11 09:27:31;;;;;;;10.13;3.90;;;;;;;10.15;79.29;95436.25;5036677;28;20205;-72
2021/03/11 09:30:00;;;;;;;9.57;4.13;;;;;;;10.30;78.74;95444.84;5037091;28;20205;-72
2021/03/11 09:32:29;;;;;;;8.93;4.17;;;;;;;10.37;77.92;95432.50;5037207;28;20610;-72
2021/03/11 09:34:58;;;;;;;5.97;2.80;;;;;;;10.43;78.19;95429.91;5036662;28;20235;-72
2021/03/11 09:37:50;;;;;;;11.70;3.60;;;;;;;10.55;77.68;95417.00;5036267;28;20218;-72
2021/03/11 09:40:24;;;;;;;9.10;4.23;;;;;;;10.62;77.27;95418.66;5036545;28;20259;-72
2021/03/11 09:43:09;;;;;;;7.60;3.80;;;;;;;10.76;75.98;95416.91;5037093;28;20212;-72
2021/03/11 09:45:38;;;;;;;5.47;3.33;;;;;;;10.85;75.78;95407.81;5035998;28;20669;-72
2021/03/11 09:48:08;;;;;;;8.33;3.30;;;;;;;10.96;75.08;95400.13;5036700;28;20201;-72
2021/03/11 09:50:36;;;;;;;5.97;2.77;;;;;;;11.01;74.35;95395.88;5036793;28;20201;-72
2021/03/11 09:53:02;;;;;;;9.47;4.17;;;;;;;11.19;74.14;95393.47;5036692;28;20244;-72
2021/03/11 09:55:29;;;;;;;8.07;3.43;;;;;;;11.32;72.92;95395.31;5036249;28;20247;-72
2021/03/11 09:57:55;;;;;;;8.07;3.20;;;;;;;11.51;72.77;95392.72;5036351;28;20266;-72
2021/03/11 10:00:23;;;;;;;7.43;3.37;;;;;;;11.62;71.38;95381.53;5036439;28;20205;-72
2021/03/11 10:02:50;;;;;;;8.73;3.53;;;;;;;11.67;70.64;95374.66;5037406;28;20231;-72
2021/03/11 10:05:16;;;;;;;5.97;3.67;;;;;;;11.77;71.07;95377.69;5035840;28;20205;-73
2021/03/11 10:07:42;;;;;;;10.23;3.77;;;;;;;11.86;70.09;95368.56;5036313;28;20197;-72
2021/03/11 10:10:13;;;;;;;7.00;3.03;;;;;;;12.05;68.90;95366.88;5037158;28;20223;-72
2021/03/11 10:12:41;;;;;;;10.67;4.40;;;;;;;12.22;68.54;95367.03;5036558;28;20569;-72
2021/03/11 10:15:10;;;;;;;5.53;3.33;;;;;;;12.26;68.17;95370.88;5036142;28;20204;-72
2021/03/11 10:17:37;;;;;;;6.27;3.20;;;;;;;12.38;67.41;95374.47;5036406;28;20291;-72
2021/03/11 10:20:26;;;;;;;8.20;3.30;;;;;;;12.34;66.56;95368.00;5036203;28;20209;-72
2021/03/11 10:23:13;;;;;;;6.10;2.50;;;;;;;12.38;66.20;95356.00;5035962;28;20688;-72
2021/03/11 10:25:39;;;;;;;7.57;3.00;;;;;;;12.38;65.95;95368.41;5035885;28;20627;-71
2021/03/11 10:28:05;;;;;;;6.57;2.20;;;;;;;12.43;64.95;95350.88;5036584;28;20422;-72
2021/03/11 10:30:31;;;;;;;11.53;2.93;;;;;;;12.41;64.22;95352.94;5036389;28;20543;-72
2021/03/11 10:32:59;;;;;;;10.23;3.17;;;;;;;12.33;64.10;95361.13;5036841;28;20206;-72
2021/03/11 10:35:27;;;;;;;13.67;5.17;;;;;;;12.43;64.77;95361.47;5035875;28;20232;-72
2021/03/11 10:37:54;;;;;;;6.67;2.80;;;;;;;12.48;64.66;95351.09;5036008;28;20844;-72
2021/03/11 10:40:22;;;;;;;4.47;2.63;;;;;;;12.62;64.69;95355.28;5036166;28;20549;-71
2021/03/11 10:42:49;;;;;;;6.03;3.13;;;;;;;12.73;62.95;95352.00;5036639;28;20197;-71
2021/03/11 10:45:18;;;;;;;8.48;2.97;;;;;;;12.68;62.95;95337.78;5036236;28;20205;-72
2021/03/11 10:47:58;;;;;;;5.88;2.40;;;;;;;12.76;63.29;95341.78;5036576;28;20197;-72
2021/03/11 10:50:24;;;;;;;5.60;3.10;;;;;;;12.97;63.84;95335.41;5036616;28;20618;-71
2021/03/11 10:52:52;;;;;;;4.63;2.70;;;;;;;13.08;62.98;95335.53;5038835;28;20212;-72
2021/03/11 10:55:33;;;;;;;6.50;2.80;;;;;;;13.10;62.69;95320.25;5040398;28;20212;-71
2021/03/11 10:57:59;;;;;;;12.33;3.00;;;;;;;13.17;62.80;95317.56;5041358;28;20600;-72
2021/03/11 11:00:27;;;;;;;4.85;2.60;;;;;;;13.15;62.63;95332.81;5041134;28;20227;-71
2021/03/11 11:02:55;;;;;;;6.20;3.30;;;;;;;13.30;63.04;95325.41;5041289;28;20205;-71
2021/03/11 11:05:22;;;;;;;7.82;3.03;;;;;;;13.36;63.45;95327.19;5040380;28;20193;-72
2021/03/11 11:07:49;;;;;;;5.45;2.70;;;;;;;13.43;63.55;95329.56;5040284;28;20286;-71
2021/03/11 11:10:17;;;;;;;9.68;3.28;;;;;;;13.46;63.48;95339.72;5040690;28;20209;-72
2021/03/11 11:12:43;;;;;;;4.70;2.50;;;;;;;13.53;63.29;95311.38;5041628;28;20201;-71
2021/03/11 11:15:10;;;;;;;4.18;2.00;;;;;;;13.57;64.11;95330.28;5041553;28;20278;-71
2021/03/11 11:17:37;;;;;;;4.57;1.92;;;;;;;13.70;63.60;95317.72;5041450;28;20201;-71
2021/03/11 11:20:04;;;;;;;6.88;2.88;;;;;;;13.80;63.47;95314.59;5041004;28;20209;-71
2021/03/11 11:22:31;;;;;;;5.20;1.80;;;;;;;13.89;63.33;95324.69;5041208;28;20252;-71
2021/03/11 11:24:58;;;;;;;7.47;2.50;;;;;;;14.03;63.43;95320.88;5040503;28;20622;-71
2021/03/11 11:27:24;;;;;;;4.97;2.00;;;;;;;14.11;63.68;95321.41;5040635;28;20197;-71
2021/03/11 11:29:50;;;;;;;4.82;2.50;;;;;;;14.25;64.15;95320.22;5040553;28;20201;-71
2021/03/11 11:32:16;;;;;;;2.38;1.50;;;;;;;14.25;63.30;95319.44;5040127;28;20254;-71
2021/03/11 11:34:42;;;;;;;3.92;2.10;;;;;;;14.25;63.06;95335.31;5040802;28;20252;-71
2021/03/11 11:37:08;;;;;;;2.70;1.80;;;;;;;14.18;63.35;95321.34;5040385;28;20660;-71